Time;durP1;ratioP1;P1;durP2;ratioP2;P2;SDS_P1;SDS_P2;PMS_P1;PMS_P2;Temp;Humidity;BMP_temperature;BMP_pressure;BME280_temperature;BME280_humidity;BME280_pressure;Samples;Min_cycle;Max_cycle;Signal;HPM_P1;HPM_P2
2021/04/05 00:00:06;;;;;;;24.92;24.42;;;;;;;;;;5027021;28;20072;-44
2021/04/05 00:02:32;;;;;;;27.20;26.55;;;;;;;;;;5026349;28;20509;-43
2021/04/05 00:04:58;;;;;;;26.67;25.98;;;;;;;;;;5023732;28;20041;-43
2021/04/05 00:07:25;;;;;;;25.15;24.50;;;;;;;;;;5023887;28;20042;-43
2021/04/05 00:09:51;;;;;;;28.63;27.73;;;;;;;;;;5032756;28;20121;-42
2021/04/05 00:12:18;;;;;;;26.60;25.90;;;;;;;;;;5027538;28;20095;-45
2021/04/05 00:14:44;;;;;;;24.15;23.58;;;;;;;;;;5027473;28;20046;-44
2021/04/05 00:17:11;;;;;;;28.38;27.30;;;;;;;;;;5020273;28;20036;-43
2021/04/05 00:19:39;;;;;;;25.98;25.35;;;;;;;;;;5022982;28;20529;-43
2021/04/05 00:22:05;;;;;;;26.67;25.90;;;;;;;;;;5021183;28;20541;-44
2021/04/05 00:24:31;;;;;;;27.80;27.00;;;;;;;;;;5025880;28;20452;-43
2021/04/05 00:26:58;;;;;;;27.80;26.92;;;;;;;;;;5026819;28;20095;-45
2021/04/05 00:29:24;;;;;;;26.17;25.58;;;;;;;;;;5016530;28;20070;-43
2021/04/05 00:31:50;;;;;;;24.65;24.15;;;;;;;;;;5025104;28;20038;-43
2021/04/05 00:34:17;;;;;;;27.42;26.73;;;;;;;;;;5024354;28;20053;-44
2021/04/05 00:36:43;;;;;;;26.52;25.90;;;;;;;;;;5028905;28;20068;-45
2021/04/05 00:39:09;;;;;;;25.30;24.75;;;;;;;;;;5026348;28;20057;-44
2021/04/05 00:41:36;;;;;;;27.63;27.02;;;;;;;;;;5021581;28;20177;-43
2021/04/05 00:44:03;;;;;;;26.25;25.58;;;;;;;;;;5026507;28;20057;-43
2021/04/05 00:46:29;;;;;;;26.00;25.27;;;;;;;;;;5030248;28;20046;-45
2021/04/05 00:48:55;;;;;;;27.13;26.60;;;;;;;;;;5027758;28;20042;-43
2021/04/05 00:51:23;;;;;;;27.90;27.13;;;;;;;;;;5025111;28;20042;-43
2021/04/05 00:53:49;;;;;;;23.80;23.38;;;;;;;;;;5032974;28;20075;-45
2021/04/05 00:56:17;;;;;;;23.20;22.80;;;;;;;;;;5024279;28;20026;-43
2021/04/05 00:58:43;;;;;;;25.40;24.70;;;;;;;;;;5027387;28;20044;-43
2021/04/05 01:01:12;;;;;;;25.48;25.08;;;;;;;;;;5030440;28;20052;-44
2021/04/05 01:03:39;;;;;;;28.35;27.70;;;;;;;;;;5025381;28;20042;-44
2021/04/05 01:06:13;;;;;;;26.85;26.23;;;;;;;;;;5017727;28;20037;-44
2021/04/05 01:08:40;;;;;;;28.17;27.52;;;;;;;;;;5024644;28;20437;-45
2021/04/05 01:11:12;;;;;;;24.13;23.63;;;;;;;;;;5025580;28;20494;-43
2021/04/05 01:13:38;;;;;;;24.52;23.92;;;;;;;;;;5025878;28;20042;-44
2021/04/05 01:16:05;;;;;;;26.77;26.20;;;;;;;;;;5025713;28;20049;-43
2021/04/05 01:18:31;;;;;;;24.98;24.48;;;;;;;;;;5023548;28;20038;-44
2021/04/05 01:21:00;;;;;;;21.95;21.35;;;;;;;;;;5027098;28;20445;-47
2021/04/05 01:23:26;;;;;;;27.75;27.15;;;;;;;;;;5027629;28;20510;-44
2021/04/05 01:25:53;;;;;;;25.85;25.35;;;;;;;;;;5014230;28;20050;-44
2021/04/05 01:28:20;;;;;;;25.60;24.90;;;;;;;;;;5023969;28;20045;-44
2021/04/05 01:30:50;;;;;;;25.52;24.83;;;;;;;;;;5029298;28;20029;-44
2021/04/05 01:33:19;;;;;;;27.02;26.23;;;;;;;;;;5028827;28;20041;-43
2021/04/05 01:35:48;;;;;;;28.67;27.98;;;;;;;;;;5020625;28;20638;-44
2021/04/05 01:38:16;;;;;;;27.17;26.58;;;;;;;;;;5031681;28;20567;-43
2021/04/05 01:40:45;;;;;;;27.33;26.73;;;;;;;;;;5021111;28;20041;-43
2021/04/05 01:43:11;;;;;;;27.23;26.42;;;;;;;;;;5015415;28;20073;-43
2021/04/05 01:45:38;;;;;;;25.40;24.80;;;;;;;;;;5026103;28;20045;-44
2021/04/05 01:48:05;;;;;;;26.02;25.33;;;;;;;;;;5021544;28;20049;-43
2021/04/05 01:50:31;;;;;;;26.20;25.60;;;;;;;;;;5030426;28;20034;-44
2021/04/05 01:53:02;;;;;;;28.52;27.83;;;;;;;;;;5024877;28;20478;-43
2021/04/05 01:55:29;;;;;;;28.92;28.17;;;;;;;;;;5026447;28;20083;-44
2021/04/05 01:57:56;;;;;;;28.05;27.45;;;;;;;;;;5028351;28;20870;-43
2021/04/05 02:00:24;;;;;;;28.50;28.00;;;;;;;;;;5023128;28;20038;-43
2021/04/05 02:02:50;;;;;;;25.85;25.35;;;;;;;;;;5030344;28;20136;-43
2021/04/05 02:05:17;;;;;;;28.05;27.30;;;;;;;;;;5017010;28;20053;-44
2021/04/05 02:07:43;;;;;;;29.13;28.42;;;;;;;;;;5025696;28;20037;-43
2021/04/05 02:10:11;;;;;;;29.52;28.88;;;;;;;;;;5027988;28;20485;-45
2021/04/05 02:12:38;;;;;;;31.05;30.15;;;;;;;;;;5022210;28;20069;-43
2021/04/05 02:15:07;;;;;;;26.27;25.63;;;;;;;;;;5029547;28;20050;-43
2021/04/05 02:17:33;;;;;;;27.90;26.90;;;;;;;;;;5027044;28;20084;-45
2021/04/05 02:20:00;;;;;;;31.05;30.27;;;;;;;;;;5023231;28;20097;-44
2021/04/05 02:22:26;;;;;;;27.88;26.95;;;;;;;;;;5030847;28;20104;-43
2021/04/05 02:24:53;;;;;;;30.00;29.30;;;;;;;;;;5023310;28;20037;-43
2021/04/05 02:27:20;;;;;;;29.15;28.42;;;;;;;;;;5027216;28;20041;-43
2021/04/05 02:29:46;;;;;;;27.15;26.25;;;;;;;;;;5027002;28;20615;-42
2021/04/05 02:32:13;;;;;;;28.48;27.95;;;;;;;;;;5024695;28;20041;-45
2021/04/05 02:34:40;;;;;;;29.20;28.50;;;;;;;;;;5028476;28;20080;-43
2021/04/05 02:37:07;;;;;;;29.55;28.85;;;;;;;;;;5017973;28;20424;-43
2021/04/05 02:39:34;;;;;;;29.58;28.90;;;;;;;;;;5026506;28;20049;-43
2021/04/05 02:42:00;;;;;;;29.20;28.45;;;;;;;;;;5023941;28;20033;-43
2021/04/05 02:44:27;;;;;;;28.48;27.67;;;;;;;;;;5019969;28;20057;-42
2021/04/05 02:46:54;;;;;;;30.05;29.45;;;;;;;;;;5031393;28;20037;-44
2021/04/05 02:49:21;;;;;;;28.20;27.65;;;;;;;;;;5027851;28;20056;-44
2021/04/05 02:51:48;;;;;;;29.23;28.60;;;;;;;;;;5022619;28;20034;-45
2021/04/05 02:54:18;;;;;;;28.92;28.33;;;;;;;;;;5024878;28;20041;-44
2021/04/05 02:56:45;;;;;;;26.95;26.35;;;;;;;;;;5027883;28;20041;-45
2021/04/05 02:59:15;;;;;;;29.17;28.55;;;;;;;;;;5030380;28;20033;-43
2021/04/05 03:01:41;;;;;;;29.17;28.48;;;;;;;;;;5029568;28;20478;-43
2021/04/05 03:04:08;;;;;;;27.33;26.83;;;;;;;;;;5028955;28;20049;-43
2021/04/05 03:06:34;;;;;;;28.45;27.75;;;;;;;;;;5032623;28;20041;-44
2021/04/05 03:09:05;;;;;;;27.88;27.38;;;;;;;;;;5027631;28;20132;-44
2021/04/05 03:11:31;;;;;;;28.75;28.15;;;;;;;;;;5029450;28;20096;-44
2021/04/05 03:13:58;;;;;;;27.33;26.63;;;;;;;;;;5021083;28;20062;-44
2021/04/05 03:16:26;;;;;;;26.08;25.48;;;;;;;;;;5021379;28;20049;-44
2021/04/05 03:18:55;;;;;;;28.95;28.15;;;;;;;;;;5034108;28;20038;-45
2021/04/05 03:21:22;;;;;;;28.08;27.58;;;;;;;;;;5025888;28;20037;-44
2021/04/05 03:23:49;;;;;;;26.92;26.45;;;;;;;;;;5023139;28;20056;-44
2021/04/05 03:26:16;;;;;;;29.40;28.80;;;;;;;;;;5032528;28;20049;-44
2021/04/05 03:28:42;;;;;;;29.17;28.38;;;;;;;;;;5026888;28;20048;-44
2021/04/05 03:31:08;;;;;;;28.08;27.38;;;;;;;;;;5033720;28;20069;-44
2021/04/05 03:33:38;;;;;;;28.20;27.50;;;;;;;;;;5023265;28;20049;-43
2021/04/05 03:36:24;;;;;;;26.15;25.65;;;;;;;;;;5022380;28;20143;-43
2021/04/05 03:38:51;;;;;;;29.52;28.73;;;;;;;;;;5031965;28;20501;-44
2021/04/05 03:41:23;;;;;;;27.52;26.95;;;;;;;;;;5028777;28;20521;-44
2021/04/05 03:43:54;;;;;;;27.73;27.13;;;;;;;;;;5026412;28;20050;-44
2021/04/05 03:46:25;;;;;;;27.65;27.10;;;;;;;;;;5030100;28;20401;-43
2021/04/05 03:48:55;;;;;;;26.90;26.45;;;;;;;;;;5027775;28;20054;-45
2021/04/05 03:51:30;;;;;;;25.40;24.80;;;;;;;;;;5025779;28;20038;-44
2021/04/05 03:54:03;;;;;;;26.80;26.30;;;;;;;;;;5026767;28;20042;-44
2021/04/05 03:56:58;;;;;;;27.17;26.40;;;;;;;;;;5028903;28;20052;-44
2021/04/05 03:59:26;;;;;;;25.30;24.90;;;;;;;;;;5031813;28;20462;-45
2021/04/05 04:01:56;;;;;;;25.42;25.00;;;;;;;;;;5024919;28;20637;-43
2021/04/05 04:04:29;;;;;;;29.15;28.55;;;;;;;;;;5019525;28;20049;-45
2021/04/05 04:07:10;;;;;;;27.05;26.58;;;;;;;;;;5021337;28;20470;-44
2021/04/05 04:09:37;;;;;;;28.33;27.77;;;;;;;;;;5026111;28;20053;-43
2021/04/05 04:12:06;;;;;;;26.77;26.17;;;;;;;;;;5002529;28;20455;-43
2021/04/05 04:14:32;;;;;;;28.75;28.05;;;;;;;;;;5028140;28;20034;-44
2021/04/05 04:16:59;;;;;;;27.55;26.98;;;;;;;;;;5026765;28;20534;-44
2021/04/05 04:19:25;;;;;;;25.85;25.25;;;;;;;;;;5029277;28;20045;-44
2021/04/05 04:21:52;;;;;;;28.27;27.63;;;;;;;;;;5027015;28;20041;-45
2021/04/05 04:24:18;;;;;;;29.23;28.63;;;;;;;;;;5014449;28;20478;-44
2021/04/05 04:26:45;;;;;;;30.33;29.60;;;;;;;;;;5028173;28;20068;-44
2021/04/05 04:29:12;;;;;;;29.50;28.20;;;;;;;;;;5024434;28;20045;-43
2021/04/05 04:31:38;;;;;;;29.95;29.33;;;;;;;;;;5030820;28;20090;-44
2021/04/05 04:34:05;;;;;;;31.20;30.40;;;;;;;;;;5022047;28;20172;-44
2021/04/05 04:36:32;;;;;;;28.10;27.50;;;;;;;;;;5024335;28;20129;-43
2021/04/05 04:38:58;;;;;;;29.08;28.25;;;;;;;;;;5022807;28;20626;-44
2021/04/05 04:41:26;;;;;;;28.30;27.60;;;;;;;;;;5025283;28;20081;-43
2021/04/05 04:43:56;;;;;;;28.23;27.52;;;;;;;;;;5026739;28;20493;-44
2021/04/05 04:46:22;;;;;;;28.65;27.95;;;;;;;;;;5026754;28;20046;-43
2021/04/05 04:48:58;;;;;;;28.63;28.10;;;;;;;;;;5028896;28;20076;-44
2021/04/05 04:51:25;;;;;;;27.17;26.60;;;;;;;;;;5020084;28;20033;-43
2021/04/05 04:53:58;;;;;;;28.85;28.25;;;;;;;;;;5025153;28;20041;-43
2021/04/05 04:56:25;;;;;;;26.65;26.02;;;;;;;;;;5029637;28;20037;-45
2021/04/05 04:58:57;;;;;;;28.25;27.55;;;;;;;;;;5028538;28;20041;-44
2021/04/05 05:01:24;;;;;;;30.23;29.10;;;;;;;;;;5024828;28;20108;-44
2021/04/05 05:03:52;;;;;;;29.15;28.60;;;;;;;;;;5033357;28;20051;-45
2021/04/05 05:06:20;;;;;;;28.80;28.08;;;;;;;;;;5024069;28;20095;-43
2021/04/05 05:08:46;;;;;;;28.60;28.00;;;;;;;;;;5026770;28;20479;-43
2021/04/05 05:11:14;;;;;;;27.55;26.95;;;;;;;;;;5028895;28;20033;-44
2021/04/05 05:13:40;;;;;;;27.05;26.52;;;;;;;;;;5023668;28;20038;-46
2021/04/05 05:16:08;;;;;;;29.45;28.85;;;;;;;;;;5027373;28;20037;-44
2021/04/05 05:18:35;;;;;;;28.30;27.60;;;;;;;;;;5024173;28;20401;-44
2021/04/05 05:21:04;;;;;;;25.05;24.35;;;;;;;;;;5024367;28;20092;-45
2021/04/05 05:23:32;;;;;;;26.70;26.20;;;;;;;;;;5027701;28;20033;-43
2021/04/05 05:25:59;;;;;;;27.40;26.80;;;;;;;;;;5026183;28;20469;-45
2021/04/05 05:28:25;;;;;;;27.55;26.75;;;;;;;;;;5025562;28;20057;-43
2021/04/05 05:30:52;;;;;;;28.60;27.92;;;;;;;;;;5028339;28;20394;-44
2021/04/05 05:33:19;;;;;;;26.40;25.70;;;;;;;;;;5027814;28;20029;-45
2021/04/05 05:35:46;;;;;;;27.05;26.45;;;;;;;;;;5015192;28;20046;-45
2021/04/05 05:38:13;;;;;;;28.83;28.05;;;;;;;;;;5022463;28;20037;-44
2021/04/05 05:40:40;;;;;;;27.48;26.90;;;;;;;;;;5026231;28;20053;-43
2021/04/05 05:43:16;;;;;;;29.27;28.60;;;;;;;;;;5025925;28;20041;-43
2021/04/05 05:46:01;;;;;;;27.13;26.52;;;;;;;;;;5024641;28;20060;-44
2021/04/05 05:48:45;;;;;;;30.20;29.50;;;;;;;;;;5015594;28;20091;-44
2021/04/05 05:51:35;;;;;;;29.38;28.38;;;;;;;;;;5027421;28;20073;-43
2021/04/05 05:54:34;;;;;;;27.77;27.27;;;;;;;;;;5027142;28;20414;-44
2021/04/05 05:57:12;;;;;;;26.90;26.23;;;;;;;;;;5017142;28;20052;-44
2021/04/05 05:59:57;;;;;;;28.42;27.88;;;;;;;;;;5029715;28;20045;-44
2021/04/05 06:02:35;;;;;;;29.30;28.38;;;;;;;;;;5023985;28;20494;-43
2021/04/05 06:05:08;;;;;;;30.80;30.00;;;;;;;;;;5028666;28;20038;-44
2021/04/05 06:07:41;;;;;;;28.67;27.98;;;;;;;;;;5017957;28;20545;-43
2021/04/05 06:10:25;;;;;;;24.02;23.60;;;;;;;;;;5023639;28;20397;-46
2021/04/05 06:13:09;;;;;;;22.88;22.38;;;;;;;;;;5024817;28;20040;-44
2021/04/05 06:15:35;;;;;;;;;;;;;;;;;;5026370;28;20041;-44
2021/04/05 06:18:16;;;;;;;25.15;24.65;;;;;;;;;;5027424;28;19935;-44
2021/04/05 06:20:43;;;;;;;27.67;26.77;;;;;;;;;;5026863;28;20068;-43
2021/04/05 06:23:23;;;;;;;25.85;25.35;;;;;;;;;;5016356;28;20103;-45
2021/04/05 06:25:59;;;;;;;25.27;24.77;;;;;;;;;;5022971;28;20048;-44
2021/04/05 06:28:44;;;;;;;26.55;26.05;;;;;;;;;;5025315;28;20044;-42
2021/04/05 06:31:15;;;;;;;24.70;24.10;;;;;;;;;;5021172;28;20045;-44
2021/04/05 06:33:46;;;;;;;26.30;25.80;;;;;;;;;;5021648;28;20124;-43
2021/04/05 06:36:48;;;;;;;27.08;26.40;;;;;;;;;;5033780;28;20041;-45
2021/04/05 06:39:26;;;;;;;26.08;25.25;;;;;;;;;;5010635;28;20046;-43
2021/04/05 06:41:55;;;;;;;31.85;30.55;;;;;;;;;;5011818;28;20054;-43
2021/04/05 06:44:35;;;;;;;30.10;29.10;;;;;;;;;;5012911;28;20073;-43
2021/04/05 06:47:04;;;;;;;28.77;27.85;;;;;;;;;;5009597;28;20300;-42
2021/04/05 06:49:40;;;;;;;27.55;26.65;;;;;;;;;;5010531;28;20054;-46
2021/04/05 06:52:11;;;;;;;26.17;25.35;;;;;;;;;;5011923;28;20426;-43
2021/04/05 06:54:55;;;;;;;25.48;24.67;;;;;;;;;;5011011;28;20108;-43
2021/04/05 06:57:26;;;;;;;26.38;25.67;;;;;;;;;;5009308;28;20045;-43
2021/04/05 06:59:57;;;;;;;25.45;24.95;;;;;;;;;;5005162;28;20054;-44
2021/04/05 07:02:24;;;;;;;25.65;25.02;;;;;;;;;;5007276;28;20046;-43
2021/04/05 07:05:09;;;;;;;25.13;24.42;;;;;;;;;;5011760;28;20148;-44
2021/04/05 07:07:59;;;;;;;24.45;23.75;;;;;;;;;;5007888;28;20042;-44
2021/04/05 07:10:48;;;;;;;20.02;19.55;;;;;;;;;;5010810;28;20041;-45
2021/04/05 07:13:29;;;;;;;20.27;19.70;;;;;;;;;;4987056;28;20429;-44
2021/04/05 07:16:18;;;;;;;17.80;17.48;;;;;;;;;;5020895;28;20481;-43
2021/04/05 07:19:06;;;;;;;19.77;19.48;;;;;;;;;;5017095;28;20385;-44
2021/04/05 07:21:46;;;;;;;15.02;14.68;;;;;;;;;;5027348;28;20382;-44
2021/04/05 07:24:31;;;;;;;15.82;15.63;;;;;;;;;;5025650;28;20051;-43
2021/04/05 07:27:01;;;;;;;6.93;6.72;;;;;;;;;;5016707;28;20520;-43
2021/04/05 07:29:49;;;;;;;5.97;5.88;;;;;;;;;;5018575;28;20034;-44
2021/04/05 07:32:19;;;;;;;3.53;3.30;;;;;;;;;;5019929;28;20422;-42
2021/04/05 07:34:57;;;;;;;2.65;2.45;;;;;;;;;;5032798;28;20053;-44
2021/04/05 07:37:36;;;;;;;2.20;2.20;;;;;;;;;;5027366;28;20037;-44
2021/04/05 07:40:09;;;;;;;1.88;1.88;;;;;;;;;;5030565;28;20038;-43
2021/04/05 07:42:45;;;;;;;2.15;2.03;;;;;;;;;;5030766;28;20037;-44
2021/04/05 07:45:18;;;;;;;2.22;2.22;;;;;;;;;;5024098;28;20113;-45
2021/04/05 07:47:54;;;;;;;1.80;1.70;;;;;;;;;;5018683;28;20050;-44
2021/04/05 07:50:23;;;;;;;2.08;2.08;;;;;;;;;;5021969;28;20045;-45
2021/04/05 07:53:08;;;;;;;1.85;1.85;;;;;;;;;;5027049;28;20076;-57
2021/04/05 07:55:35;;;;;;;2.00;1.90;;;;;;;;;;5014815;28;20030;-57
2021/04/05 07:58:08;;;;;;;2.20;1.60;;;;;;;;;;5026144;28;20121;-58
2021/04/05 08:01:00;;;;;;;5.60;5.18;;;;;;;;;;5029383;28;20052;-57
2021/04/05 08:03:46;;;;;;;4.60;4.60;;;;;;;;;;5029015;28;20565;-55
2021/04/05 08:06:13;;;;;;;1.98;1.88;;;;;;;;;;5023083;28;20041;-57
2021/04/05 08:08:39;;;;;;;2.20;2.20;;;;;;;;;;5030182;28;20564;-58
2021/04/05 08:11:09;;;;;;;2.22;2.13;;;;;;;;;;5028880;28;20057;-55
2021/04/05 08:13:35;;;;;;;1.67;1.58;;;;;;;;;;5026219;28;20069;-57
2021/04/05 08:16:05;;;;;;;1.50;1.50;;;;;;;;;;5031143;28;20059;-57
2021/04/05 08:18:44;;;;;;;1.83;1.73;;;;;;;;;;5019525;28;20038;-58
2021/04/05 08:21:12;;;;;;;1.20;1.20;;;;;;;;;;5025450;28;20073;-57
2021/04/05 08:23:50;;;;;;;1.70;1.60;;;;;;;;;;5018459;28;20060;-58
2021/04/05 08:26:25;;;;;;;2.67;1.20;;;;;;;;;;5022393;28;20056;-56
2021/04/05 08:29:00;;;;;;;1.35;1.35;;;;;;;;;;5020067;28;20049;-58
2021/04/05 08:31:37;;;;;;;1.85;1.35;;;;;;;;;;5024127;28;20042;-56
2021/04/05 08:34:13;;;;;;;2.15;1.20;;;;;;;;;;5024117;28;20049;-57
2021/04/05 08:37:03;;;;;;;1.20;1.20;;;;;;;;;;5017040;28;20060;-57
2021/04/05 08:39:48;;;;;;;1.58;1.08;;;;;;;;;;5022460;28;20041;-56
2021/04/05 08:42:14;;;;;;;1.42;1.42;;;;;;;;;;5030119;28;20431;-55
2021/04/05 08:44:50;;;;;;;1.02;1.02;;;;;;;;;;5028320;28;20264;-56
2021/04/05 08:47:19;;;;;;;1.10;1.10;;;;;;;;;;5022988;28;20533;-53
2021/04/05 08:49:47;;;;;;;1.05;1.00;;;;;;;;;;5017375;28;20030;-58
2021/04/05 08:52:13;;;;;;;1.10;1.10;;;;;;;;;;5019132;28;20030;-58
2021/04/05 08:54:41;;;;;;;1.13;1.00;;;;;;;;;;5017807;28;20049;-57
2021/04/05 08:57:09;;;;;;;1.13;1.13;;;;;;;;;;5016342;28;20505;-57
2021/04/05 08:59:45;;;;;;;1.50;1.50;;;;;;;;;;5024630;28;20040;-58
2021/04/05 09:02:25;;;;;;;2.67;2.58;;;;;;;;;;5032141;28;20377;-57
2021/04/05 09:04:53;;;;;;;3.60;1.35;;;;;;;;;;5017923;28;20046;-57
2021/04/05 09:07:34;;;;;;;1.92;1.40;;;;;;;;;;5015498;28;20038;-55
2021/04/05 09:10:05;;;;;;;0.90;0.90;;;;;;;;;;5028770;28;20052;-58
2021/04/05 09:12:35;;;;;;;1.20;0.90;;;;;;;;;;5020482;28;20045;-57
2021/04/05 09:15:20;;;;;;;1.00;1.00;;;;;;;;;;5027478;28;20033;-58
2021/04/05 09:18:07;;;;;;;1.15;1.00;;;;;;;;;;5026100;28;20132;-57
2021/04/05 09:20:42;;;;;;;1.10;1.10;;;;;;;;;;5022277;28;20061;-58
2021/04/05 09:23:16;;;;;;;0.90;0.90;;;;;;;;;;5031244;28;20037;-57
2021/04/05 09:25:49;;;;;;;1.00;1.00;;;;;;;;;;5018653;28;20050;-53
2021/04/05 09:28:21;;;;;;;1.10;1.10;;;;;;;;;;5016783;28;20041;-57
2021/04/05 09:31:01;;;;;;;1.00;1.00;;;;;;;;;;5024088;28;20116;-57
2021/04/05 09:33:46;;;;;;;0.95;0.95;;;;;;;;;;5022182;28;20042;-56
2021/04/05 09:36:30;;;;;;;1.27;0.80;;;;;;;;;;5029216;28;20666;-58
2021/04/05 09:38:57;;;;;;;0.98;0.95;;;;;;;;;;5019817;28;20041;-57
2021/04/05 09:41:49;;;;;;;1.45;0.90;;;;;;;;;;5017334;28;21638;-58
2021/04/05 09:44:15;;;;;;;1.15;0.90;;;;;;;;;;5024912;28;20038;-52
2021/04/05 09:46:54;;;;;;;1.70;0.90;;;;;;;;;;5018747;28;20057;-57
2021/04/05 09:49:35;;;;;;;1.15;0.85;;;;;;;;;;5024912;28;20129;-58
2021/04/05 09:52:14;;;;;;;1.05;0.80;;;;;;;;;;5024244;28;20037;-57
2021/04/05 09:54:52;;;;;;;1.48;0.90;;;;;;;;;;5019219;28;20069;-57
2021/04/05 09:57:32;;;;;;;0.90;0.90;;;;;;;;;;5020913;28;20038;-52
2021/04/05 10:00:00;;;;;;;1.10;1.00;;;;;;;;;;5024218;28;20037;-58
2021/04/05 10:02:32;;;;;;;1.70;1.60;;;;;;;;;;5024257;28;20096;-57
2021/04/05 10:04:59;;;;;;;0.90;0.90;;;;;;;;;;5021006;28;20707;-58
2021/04/05 10:07:26;;;;;;;0.90;0.90;;;;;;;;;;5020580;28;20049;-58
2021/04/05 10:09:54;;;;;;;0.80;0.80;;;;;;;;;;5022506;28;20038;-58
2021/04/05 10:12:21;;;;;;;1.73;0.90;;;;;;;;;;5018985;28;22356;-59
2021/04/05 10:15:00;;;;;;;1.20;1.20;;;;;;;;;;5023988;28;20553;-58
2021/04/05 10:17:27;;;;;;;0.80;0.80;;;;;;;;;;5023441;28;20473;-57
2021/04/05 10:19:55;;;;;;;0.80;0.80;;;;;;;;;;5020706;28;20038;-57
2021/04/05 10:22:23;;;;;;;0.70;0.70;;;;;;;;;;5025577;28;20045;-57
2021/04/05 10:24:52;;;;;;;0.80;0.80;;;;;;;;;;5023333;28;20107;-58
2021/04/05 10:27:19;;;;;;;0.80;0.80;;;;;;;;;;5023046;28;20521;-58
2021/04/05 10:29:50;;;;;;;0.80;0.80;;;;;;;;;;5025480;28;20068;-58
2021/04/05 10:32:23;;;;;;;0.80;0.80;;;;;;;;;;5020764;28;20552;-52
2021/04/05 10:34:52;;;;;;;0.80;0.80;;;;;;;;;;5027130;28;20037;-57
2021/04/05 10:37:24;;;;;;;0.80;0.80;;;;;;;;;;5026364;28;20041;-54
2021/04/05 10:39:52;;;;;;;1.05;0.73;;;;;;;;;;5020556;28;20406;-58
2021/04/05 10:42:20;;;;;;;0.90;0.90;;;;;;;;;;5023317;28;20046;-57
2021/04/05 10:44:47;;;;;;;0.80;0.80;;;;;;;;;;5022098;28;20041;-58
2021/04/05 10:47:18;;;;;;;1.05;1.05;;;;;;;;;;5025709;28;20054;-58
2021/04/05 10:49:45;;;;;;;0.80;0.80;;;;;;;;;;5028299;28;20041;-58
2021/04/05 10:52:14;;;;;;;0.80;0.80;;;;;;;;;;5022931;28;20038;-58
2021/04/05 10:54:41;;;;;;;0.80;0.80;;;;;;;;;;5030667;28;20037;-58
2021/04/05 10:57:19;;;;;;;0.90;0.90;;;;;;;;;;5023442;28;20029;-58
2021/04/05 10:59:51;;;;;;;0.95;0.70;;;;;;;;;;5025876;28;21483;-58
2021/04/05 11:02:20;;;;;;;0.77;0.77;;;;;;;;;;5028962;28;20385;-57
2021/04/05 11:04:51;;;;;;;1.10;0.80;;;;;;;;;;5019996;28;20130;-58
2021/04/05 11:07:18;;;;;;;0.80;0.80;;;;;;;;;;5028637;28;20437;-57
2021/04/05 11:09:44;;;;;;;0.90;0.90;;;;;;;;;;5022355;28;20053;-58
2021/04/05 11:12:12;;;;;;;0.80;0.80;;;;;;;;;;5024219;28;20037;-58
2021/04/05 11:14:40;;;;;;;0.80;0.80;;;;;;;;;;5030724;28;20454;-57
2021/04/05 11:17:08;;;;;;;1.75;0.80;;;;;;;;;;5027889;28;20037;-58
2021/04/05 11:19:41;;;;;;;0.70;0.70;;;;;;;;;;5031020;28;20040;-58
2021/04/05 11:22:13;;;;;;;0.80;0.80;;;;;;;;;;5030405;28;20049;-57
2021/04/05 11:24:40;;;;;;;1.10;0.80;;;;;;;;;;5027842;28;20045;-58
2021/04/05 11:27:10;;;;;;;0.80;0.80;;;;;;;;;;5033445;28;20056;-57
2021/04/05 11:29:38;;;;;;;1.13;1.00;;;;;;;;;;5028397;28;20120;-59
2021/04/05 11:32:09;;;;;;;1.52;0.70;;;;;;;;;;5028699;28;20065;-58
2021/04/05 11:34:37;;;;;;;0.88;0.80;;;;;;;;;;5033383;28;20037;-59
2021/04/05 11:37:09;;;;;;;0.80;0.80;;;;;;;;;;5026227;28;20048;-59
2021/04/05 11:39:37;;;;;;;0.75;0.75;;;;;;;;;;5028888;28;20033;-58
2021/04/05 11:42:04;;;;;;;0.70;0.70;;;;;;;;;;5031279;28;20517;-56
2021/04/05 11:44:37;;;;;;;1.00;0.80;;;;;;;;;;5029301;28;20041;-58
2021/04/05 11:47:06;;;;;;;0.80;0.80;;;;;;;;;;5020928;28;20052;-58
2021/04/05 11:49:32;;;;;;;0.80;0.80;;;;;;;;;;5027892;28;20056;-59
2021/04/05 11:52:01;;;;;;;1.98;0.80;;;;;;;;;;5028467;28;20065;-58
2021/04/05 11:54:46;;;;;;;0.80;0.80;;;;;;;;;;5022841;28;20500;-57
2021/04/05 11:57:13;;;;;;;1.27;0.80;;;;;;;;;;5027029;28;20573;-59
2021/04/05 11:59:47;;;;;;;0.80;0.80;;;;;;;;;;5032082;28;20037;-54
2021/04/05 12:02:23;;;;;;;0.98;0.90;;;;;;;;;;5029441;28;20045;-57
2021/04/05 12:05:07;;;;;;;0.80;0.80;;;;;;;;;;5024586;28;20069;-58
2021/04/05 12:07:51;;;;;;;1.13;0.80;;;;;;;;;;5019774;28;20521;-59
2021/04/05 12:10:22;;;;;;;0.80;0.80;;;;;;;;;;5029877;28;20055;-54
2021/04/05 12:12:55;;;;;;;0.70;0.70;;;;;;;;;;5026113;28;20040;-57
2021/04/05 12:15:25;;;;;;;0.80;0.80;;;;;;;;;;5016485;28;20394;-57
2021/04/05 12:17:53;;;;;;;0.90;0.90;;;;;;;;;;5028127;28;20046;-58
2021/04/05 12:20:23;;;;;;;0.80;0.80;;;;;;;;;;5028842;28;20049;-58
2021/04/05 12:22:53;;;;;;;0.80;0.80;;;;;;;;;;5024017;28;20034;-55
2021/04/05 12:25:27;;;;;;;1.10;0.90;;;;;;;;;;5025137;28;20064;-56
2021/04/05 12:27:56;;;;;;;1.10;1.10;;;;;;;;;;5018888;28;20774;-58
2021/04/05 12:30:25;;;;;;;2.05;0.90;;;;;;;;;;5029228;28;20073;-58
2021/04/05 12:32:55;;;;;;;1.75;0.70;;;;;;;;;;5024655;28;20030;-59
2021/04/05 12:35:23;;;;;;;2.05;0.90;;;;;;;;;;5031563;28;20534;-57
2021/04/05 12:37:56;;;;;;;0.77;0.77;;;;;;;;;;5024284;28;20091;-58
2021/04/05 12:40:24;;;;;;;0.80;0.80;;;;;;;;;;5030430;28;20087;-56
2021/04/05 12:42:52;;;;;;;0.90;0.80;;;;;;;;;;5029418;28;20044;-58
2021/04/05 12:45:19;;;;;;;0.85;0.85;;;;;;;;;;5025083;28;20073;-58
2021/04/05 12:47:45;;;;;;;1.27;0.90;;;;;;;;;;5032027;28;20045;-59
2021/04/05 12:50:13;;;;;;;3.38;1.00;;;;;;;;;;5027916;28;20569;-58
2021/04/05 12:52:41;;;;;;;1.17;1.13;;;;;;;;;;5019005;28;20481;-58
2021/04/05 12:55:12;;;;;;;0.80;0.80;;;;;;;;;;5029790;28;20559;-57
2021/04/05 12:57:38;;;;;;;0.80;0.80;;;;;;;;;;5023321;28;20408;-58
2021/04/05 13:00:18;;;;;;;0.70;0.70;;;;;;;;;;5027958;28;20061;-58
2021/04/05 13:02:48;;;;;;;0.80;0.80;;;;;;;;;;5029065;28;20073;-59
2021/04/05 13:05:41;;;;;;;0.75;0.70;;;;;;;;;;5025321;28;20044;-56
2021/04/05 13:08:13;;;;;;;1.23;0.97;;;;;;;;;;5005017;28;20049;-57
2021/04/05 13:10:46;;;;;;;0.80;0.80;;;;;;;;;;5026197;28;20299;-58
2021/04/05 13:13:13;;;;;;;0.90;0.90;;;;;;;;;;5025990;28;20037;-57
2021/04/05 13:15:44;;;;;;;0.80;0.80;;;;;;;;;;5031831;28;20041;-58
2021/04/05 13:18:33;;;;;;;0.77;0.77;;;;;;;;;;5024632;28;20029;-59
2021/04/05 13:21:03;;;;;;;0.70;0.70;;;;;;;;;;5023764;28;20112;-55
2021/04/05 13:23:31;;;;;;;1.38;0.70;;;;;;;;;;5031083;28;20041;-57
2021/04/05 13:26:10;;;;;;;0.73;0.67;;;;;;;;;;5026114;28;20038;-58
2021/04/05 13:28:36;;;;;;;0.70;0.70;;;;;;;;;;5029218;28;20050;-58
2021/04/05 13:31:05;;;;;;;0.70;0.70;;;;;;;;;;5021580;28;20052;-59
2021/04/05 13:33:34;;;;;;;0.80;0.80;;;;;;;;;;5023128;28;20079;-58
2021/04/05 13:36:10;;;;;;;0.90;0.90;;;;;;;;;;5028994;28;20036;-59
2021/04/05 13:38:37;;;;;;;0.80;0.80;;;;;;;;;;5025017;28;20045;-58
2021/04/05 13:41:25;;;;;;;0.70;0.70;;;;;;;;;;5028820;28;20408;-58
2021/04/05 13:43:53;;;;;;;1.00;0.77;;;;;;;;;;5031936;28;20037;-53
2021/04/05 13:46:20;;;;;;;0.70;0.70;;;;;;;;;;5021015;28;20042;-57
2021/04/05 13:49:14;;;;;;;0.70;0.70;;;;;;;;;;5026116;28;20099;-56
2021/04/05 13:51:43;;;;;;;0.73;0.73;;;;;;;;;;5027794;28;20084;-57
2021/04/05 13:54:10;;;;;;;1.75;0.80;;;;;;;;;;5024548;28;20030;-58
2021/04/05 13:56:37;;;;;;;1.58;0.70;;;;;;;;;;5027134;28;20077;-58
2021/04/05 13:59:12;;;;;;;0.80;0.80;;;;;;;;;;5024758;28;20371;-58
2021/04/05 14:01:42;;;;;;;0.88;0.88;;;;;;;;;;5026154;28;20038;-58
2021/04/05 14:04:14;;;;;;;3.83;0.70;;;;;;;;;;5028502;28;20052;-59
2021/04/05 14:06:46;;;;;;;0.85;0.70;;;;;;;;;;5020989;28;20050;-57
2021/04/05 14:09:14;;;;;;;1.50;0.80;;;;;;;;;;5021200;28;20493;-59
2021/04/05 14:11:58;;;;;;;0.80;0.80;;;;;;;;;;5025462;28;20509;-57
2021/04/05 14:14:26;;;;;;;0.75;0.75;;;;;;;;;;5020155;28;20445;-59
2021/04/05 14:17:02;;;;;;;0.90;0.90;;;;;;;;;;5030011;28;20099;-58
2021/04/05 14:19:35;;;;;;;0.80;0.75;;;;;;;;;;5022857;28;20025;-56
2021/04/05 14:22:13;;;;;;;1.98;0.70;;;;;;;;;;5021381;28;20100;-57
2021/04/05 14:24:46;;;;;;;0.70;0.70;;;;;;;;;;5028212;28;20045;-59
2021/04/05 14:27:16;;;;;;;1.27;0.70;;;;;;;;;;5020081;28;20045;-58
2021/04/05 14:29:53;;;;;;;0.73;0.73;;;;;;;;;;5025294;28;20092;-54
2021/04/05 14:32:20;;;;;;;0.85;0.60;;;;;;;;;;5027579;28;20049;-57
2021/04/05 14:34:48;;;;;;;0.80;0.60;;;;;;;;;;5022849;28;20464;-57
2021/04/05 14:37:20;;;;;;;0.70;0.70;;;;;;;;;;5025866;28;20478;-57
2021/04/05 14:39:52;;;;;;;1.88;0.70;;;;;;;;;;5019143;28;20033;-58
2021/04/05 14:42:24;;;;;;;0.70;0.70;;;;;;;;;;5019034;28;20424;-58
2021/04/05 14:45:09;;;;;;;0.70;0.70;;;;;;;;;;5024879;28;20041;-58
2021/04/05 14:47:37;;;;;;;0.60;0.60;;;;;;;;;;5021951;28;20065;-57
2021/04/05 14:50:10;;;;;;;0.80;0.60;;;;;;;;;;5026504;28;20406;-55
2021/04/05 14:52:44;;;;;;;0.60;0.60;;;;;;;;;;5023049;28;20474;-58
2021/04/05 14:55:14;;;;;;;1.10;0.70;;;;;;;;;;5025193;28;20096;-58